Time;durP1;ratioP1;P1;durP2;ratioP2;P2;SDS_P1;SDS_P2;PMS_P1;PMS_P2;Temp;Humidity;BMP_temperature;BMP_pressure;BME280_temperature;BME280_humidity;BME280_pressure;Samples;Min_cycle;Max_cycle;Signal;HPM_P1;HPM_P2
2021/03/03 06:01:18;;;;;;;57.10;31.58;;;;;;;;;;5130387;22;20464;-66
2021/03/03 06:03:45;;;;;;;62.25;33.25;;;;;;;;;;5035122;28;20159;-65
2021/03/03 06:06:12;;;;;;;59.08;31.77;;;;;;;;;;5034936;28;20480;-67
2021/03/03 06:08:38;;;;;;;55.67;29.25;;;;;;;;;;5034513;28;20534;-68
2021/03/03 06:11:05;;;;;;;56.63;30.05;;;;;;;;;;5018157;28;20032;-66
2021/03/03 06:13:31;;;;;;;55.53;27.70;;;;;;;;;;5035199;28;20474;-67
2021/03/03 06:15:58;;;;;;;47.90;26.35;;;;;;;;;;5034795;28;20061;-66
2021/03/03 06:18:25;;;;;;;46.60;25.80;;;;;;;;;;5035351;28;20476;-66
2021/03/03 06:20:52;;;;;;;46.92;26.10;;;;;;;;;;5016920;28;20125;-68
2021/03/03 06:23:19;;;;;;;53.50;27.92;;;;;;;;;;5033022;28;20018;-64
2021/03/03 06:25:49;;;;;;;48.42;26.60;;;;;;;;;;5033874;28;20512;-65
2021/03/03 06:28:35;;;;;;;51.05;28.05;;;;;;;;;;5025769;28;20025;-65
2021/03/03 06:31:02;;;;;;;54.15;28.05;;;;;;;;;;5022657;28;20030;-64
2021/03/03 06:33:28;;;;;;;45.20;25.48;;;;;;;;;;5024410;28;20029;-64
2021/03/03 06:35:55;;;;;;;46.42;26.65;;;;;;;;;;5023001;28;20489;-63
2021/03/03 06:38:31;;;;;;;58.13;29.15;;;;;;;;;;5029358;28;20049;-64
2021/03/03 06:41:07;;;;;;;66.97;33.28;;;;;;;;;;5026317;28;20017;-66
2021/03/03 06:43:33;;;;;;;70.45;35.60;;;;;;;;;;5006637;28;20491;-63
2021/03/03 06:46:18;;;;;;;66.50;36.00;;;;;;;;;;5110061;27;20353;-63
2021/03/03 06:48:45;;;;;;;65.45;35.13;;;;;;;;;;5108336;28;20031;-62
2021/03/03 06:51:20;;;;;;;62.60;33.78;;;;;;;;;;5110022;28;20024;-62
2021/03/03 06:53:46;;;;;;;68.40;34.78;;;;;;;;;;5109897;28;20024;-62
2021/03/03 06:56:12;;;;;;;69.60;35.80;;;;;;;;;;5109873;28;20019;-64
2021/03/03 06:58:38;;;;;;;64.30;33.38;;;;;;;;;;5109818;28;20430;-64
2021/03/03 07:01:05;;;;;;;69.18;33.45;;;;;;;;;;5109917;28;20028;-63
2021/03/03 07:03:35;;;;;;;60.45;33.45;;;;;;;;;;5110654;28;20028;-65
2021/03/03 07:06:04;;;;;;;62.20;33.13;;;;;;;;;;5110588;28;20478;-63
2021/03/03 07:08:30;;;;;;;56.60;29.95;;;;;;;;;;5110331;28;20032;-64
2021/03/03 07:10:57;;;;;;;58.67;30.33;;;;;;;;;;5110376;28;20024;-70
2021/03/03 07:13:39;;;;;;;54.15;29.10;;;;;;;;;;5109329;28;20031;-63
2021/03/03 07:16:07;;;;;;;54.80;29.90;;;;;;;;;;5108677;28;20144;-63
2021/03/03 07:18:34;;;;;;;55.08;28.42;;;;;;;;;;5109859;28;20031;-63
2021/03/03 07:21:00;;;;;;;56.28;30.38;;;;;;;;;;5109287;28;20026;-63
2021/03/03 07:23:40;;;;;;;59.70;31.42;;;;;;;;;;5110123;28;20024;-63
2021/03/03 07:26:07;;;;;;;54.55;29.55;;;;;;;;;;5108922;28;20111;-62
2021/03/03 07:28:33;;;;;;;55.70;28.58;;;;;;;;;;5110395;28;20024;-63
2021/03/03 07:30:59;;;;;;;56.03;28.15;;;;;;;;;;5109624;28;20023;-62
2021/03/03 07:33:26;;;;;;;48.00;25.95;;;;;;;;;;5110108;28;20397;-62
2021/03/03 07:35:52;;;;;;;49.22;25.92;;;;;;;;;;5110150;28;20054;-62
2021/03/03 07:38:19;;;;;;;51.20;25.60;;;;;;;;;;5104933;28;20028;-63
2021/03/03 07:40:47;;;;;;;44.95;25.67;;;;;;;;;;5110528;28;20058;-62
2021/03/03 07:43:17;;;;;;;51.10;26.20;;;;;;;;;;5110592;28;20047;-63
2021/03/03 07:45:43;;;;;;;64.28;30.60;;;;;;;;;;5110166;28;20364;-62
2021/03/03 07:48:10;;;;;;;49.83;26.88;;;;;;;;;;5109831;28;20560;-63
2021/03/03 07:50:36;;;;;;;45.35;25.67;;;;;;;;;;5110078;28;20065;-62
2021/03/03 07:53:03;;;;;;;49.55;25.92;;;;;;;;;;5110076;28;20423;-62
2021/03/03 07:55:29;;;;;;;49.22;24.73;;;;;;;;;;5108106;28;20492;-61
2021/03/03 07:57:57;;;;;;;49.60;25.50;;;;;;;;;;5096633;28;20073;-61
2021/03/03 08:00:28;;;;;;;45.80;24.30;;;;;;;;;;5095574;28;20061;-65
2021/03/03 08:02:55;;;;;;;43.10;23.92;;;;;;;;;;5096794;28;20112;-65
2021/03/03 08:05:28;;;;;;;46.13;24.83;;;;;;;;;;5096976;28;20032;-64
2021/03/03 08:08:06;;;;;;;45.08;23.90;;;;;;;;;;5096076;28;20051;-63
2021/03/03 08:10:38;;;;;;;43.15;23.15;;;;;;;;;;5096002;28;20538;-63
2021/03/03 08:13:05;;;;;;;37.80;18.83;;;;;;;;;;5085392;28;20370;-62
2021/03/03 08:15:48;;;;;;;42.58;25.83;;;;;;;;;;5091956;28;20256;-62
2021/03/03 08:18:14;;;;;;;46.28;25.40;;;;;;;;;;5092141;28;20031;-62
2021/03/03 08:20:41;;;;;;;50.92;26.02;;;;;;;;;;5092828;28;20497;-63
2021/03/03 08:23:07;;;;;;;45.15;22.52;;;;;;;;;;5093690;28;20029;-64
2021/03/03 08:26:02;;;;;;;42.10;21.52;;;;;;;;;;5095386;28;20093;-64
2021/03/03 08:28:32;;;;;;;45.22;23.00;;;;;;;;;;5078197;28;20501;-62
2021/03/03 08:31:20;;;;;;;44.83;21.15;;;;;;;;;;5095813;28;20028;-62
2021/03/03 08:33:49;;;;;;;43.38;22.60;;;;;;;;;;5079612;28;20607;-62
2021/03/03 08:36:18;;;;;;;43.72;22.85;;;;;;;;;;5094861;28;20351;-65
2021/03/03 08:39:04;;;;;;;50.75;24.58;;;;;;;;;;5095261;28;20107;-63
2021/03/03 08:41:34;;;;;;;37.72;22.25;;;;;;;;;;5080159;28;20108;-63
2021/03/03 08:44:03;;;;;;;47.08;25.10;;;;;;;;;;5095009;28;20149;-64
2021/03/03 08:46:29;;;;;;;49.40;25.10;;;;;;;;;;5095456;28;20052;-65
2021/03/03 08:48:55;;;;;;;49.90;24.92;;;;;;;;;;5095174;28;20020;-64
2021/03/03 08:51:22;;;;;;;51.15;26.17;;;;;;;;;;5095514;28;20020;-62
2021/03/03 08:53:50;;;;;;;42.35;24.95;;;;;;;;;;5091220;28;20383;-62
2021/03/03 08:56:41;;;;;;;45.97;24.98;;;;;;;;;;5094995;28;20027;-62
2021/03/03 08:59:07;;;;;;;42.78;23.90;;;;;;;;;;5095480;28;20020;-63
2021/03/03 09:01:54;;;;;;;43.85;23.23;;;;;;;;;;5094934;28;20028;-62
2021/03/03 09:04:31;;;;;;;45.95;22.65;;;;;;;;;;5094915;28;20024;-62
2021/03/03 09:06:58;;;;;;;44.55;22.45;;;;;;;;;;5130075;22;20135;-64
2021/03/03 09:09:25;;;;;;;40.88;21.42;;;;;;;;;;5073330;28;20036;-64
2021/03/03 09:11:58;;;;;;;37.47;21.23;;;;;;;;;;5074604;28;20032;-62
2021/03/03 09:14:24;;;;;;;44.03;22.55;;;;;;;;;;5073456;28;20028;-64
2021/03/03 09:16:54;;;;;;;42.88;21.48;;;;;;;;;;5074408;28;20077;-63
2021/03/03 09:19:20;;;;;;;39.50;21.30;;;;;;;;;;5074232;28;20036;-64
2021/03/03 09:21:46;;;;;;;42.45;21.73;;;;;;;;;;5073782;28;20035;-64
2021/03/03 09:24:13;;;;;;;40.53;21.02;;;;;;;;;;5074163;28;20095;-63
2021/03/03 09:26:40;;;;;;;42.40;21.70;;;;;;;;;;5074034;28;20017;-63
2021/03/03 09:29:06;;;;;;;40.03;21.40;;;;;;;;;;5074263;28;20027;-63
2021/03/03 09:31:32;;;;;;;37.50;21.13;;;;;;;;;;5074099;28;20021;-63
2021/03/03 09:33:59;;;;;;;38.47;21.05;;;;;;;;;;5070433;28;20101;-63
2021/03/03 09:36:25;;;;;;;43.22;20.63;;;;;;;;;;5073450;28;20484;-63
2021/03/03 09:38:55;;;;;;;38.83;21.52;;;;;;;;;;5074155;28;20102;-63
2021/03/03 09:41:24;;;;;;;36.75;21.42;;;;;;;;;;5073121;28;20060;-66
2021/03/03 09:44:00;;;;;;;35.25;20.80;;;;;;;;;;5073493;28;20031;-64
2021/03/03 09:46:26;;;;;;;40.50;22.25;;;;;;;;;;5074585;28;20079;-67
2021/03/03 09:48:52;;;;;;;42.47;20.50;;;;;;;;;;5055205;28;20391;-65
2021/03/03 09:51:19;;;;;;;42.13;21.48;;;;;;;;;;5074010;28;20108;-64
2021/03/03 09:53:51;;;;;;;40.00;20.40;;;;;;;;;;5073739;28;20028;-64
2021/03/03 09:56:27;;;;;;;41.55;20.98;;;;;;;;;;5072276;28;20028;-64
2021/03/03 09:58:54;;;;;;;37.90;20.77;;;;;;;;;;5073782;28;20430;-65
2021/03/03 10:01:20;;;;;;;37.53;20.25;;;;;;;;;;5073872;28;20060;-62
2021/03/03 10:03:46;;;;;;;39.33;20.05;;;;;;;;;;5072769;28;20371;-64
2021/03/03 10:06:12;;;;;;;37.20;20.52;;;;;;;;;;5073931;28;20078;-62
2021/03/03 10:08:38;;;;;;;37.70;19.73;;;;;;;;;;5074210;28;20048;-64
2021/03/03 10:11:05;;;;;;;36.63;21.42;;;;;;;;;;5071411;28;20036;-63
2021/03/03 10:13:31;;;;;;;37.78;21.05;;;;;;;;;;5071248;28;20016;-64
2021/03/03 10:15:57;;;;;;;39.50;21.02;;;;;;;;;;5072328;28;20029;-64
2021/03/03 10:18:23;;;;;;;34.92;18.67;;;;;;;;;;5071064;28;20025;-63
2021/03/03 10:20:57;;;;;;;36.03;19.08;;;;;;;;;;5072265;28;20023;-65
2021/03/03 10:23:24;;;;;;;31.58;18.42;;;;;;;;;;5070006;28;20032;-64
2021/03/03 10:25:54;;;;;;;34.30;19.67;;;;;;;;;;5071482;28;20037;-64
2021/03/03 10:28:21;;;;;;;35.58;19.13;;;;;;;;;;5069868;28;20029;-65
2021/03/03 10:30:51;;;;;;;33.88;19.00;;;;;;;;;;5071715;28;20356;-65
2021/03/03 10:33:28;;;;;;;33.08;19.48;;;;;;;;;;5053753;28;20037;-65
2021/03/03 10:35:54;;;;;;;34.42;19.65;;;;;;;;;;5072161;28;20127;-64
2021/03/03 10:38:22;;;;;;;35.58;19.48;;;;;;;;;;5072009;28;20017;-64
2021/03/03 10:40:49;;;;;;;30.83;19.02;;;;;;;;;;5072029;28;20028;-64
2021/03/03 10:43:16;;;;;;;36.92;19.83;;;;;;;;;;5073108;28;20025;-61
2021/03/03 10:45:43;;;;;;;37.28;20.80;;;;;;;;;;5072737;28;20040;-65
2021/03/03 10:48:09;;;;;;;38.13;22.00;;;;;;;;;;5073045;28;20024;-65
2021/03/03 10:50:48;;;;;;;39.20;21.45;;;;;;;;;;5073488;28;20021;-64
2021/03/03 10:53:15;;;;;;;42.85;21.65;;;;;;;;;;5072559;28;20025;-62
2021/03/03 10:55:41;;;;;;;33.55;19.58;;;;;;;;;;5072345;28;20036;-64
2021/03/03 10:58:11;;;;;;;42.15;22.98;;;;;;;;;;5073378;28;20459;-63
2021/03/03 11:00:57;;;;;;;41.00;21.55;;;;;;;;;;5072824;28;20451;-65
2021/03/03 11:03:24;;;;;;;35.67;20.25;;;;;;;;;;5072843;28;20020;-66
2021/03/03 11:05:54;;;;;;;37.05;20.90;;;;;;;;;;5072416;28;20553;-63
2021/03/03 11:08:20;;;;;;;35.10;19.90;;;;;;;;;;5072770;28;20048;-63
2021/03/03 11:10:46;;;;;;;37.42;20.30;;;;;;;;;;5072484;28;20029;-65
2021/03/03 11:13:13;;;;;;;36.17;21.17;;;;;;;;;;5072428;28;20100;-61
2021/03/03 11:15:42;;;;;;;38.58;20.55;;;;;;;;;;5072018;28;20032;-62
2021/03/03 11:18:09;;;;;;;35.78;20.08;;;;;;;;;;5071380;28;20020;-62
2021/03/03 11:20:35;;;;;;;40.85;22.90;;;;;;;;;;5072098;28;20032;-63
2021/03/03 11:23:01;;;;;;;36.65;20.45;;;;;;;;;;5073103;28;20029;-63
2021/03/03 11:25:28;;;;;;;43.15;25.13;;;;;;;;;;5072547;28;20463;-61
2021/03/03 11:27:54;;;;;;;33.92;20.70;;;;;;;;;;5072388;28;20035;-63
2021/03/03 11:30:20;;;;;;;34.08;20.15;;;;;;;;;;5072896;28;20025;-65
2021/03/03 11:32:46;;;;;;;34.58;20.08;;;;;;;;;;5075674;28;20020;-64
2021/03/03 11:35:12;;;;;;;35.35;20.35;;;;;;;;;;5075929;28;20399;-63
2021/03/03 11:37:38;;;;;;;35.08;20.17;;;;;;;;;;5076804;28;20029;-64
2021/03/03 11:40:05;;;;;;;32.95;19.15;;;;;;;;;;5075912;28;20034;-63
2021/03/03 11:42:31;;;;;;;36.35;22.17;;;;;;;;;;5075123;28;20051;-64
2021/03/03 11:44:57;;;;;;;33.15;19.20;;;;;;;;;;5076486;28;20028;-62
2021/03/03 11:47:23;;;;;;;30.42;17.60;;;;;;;;;;5075041;28;20101;-62
2021/03/03 11:49:49;;;;;;;37.35;19.90;;;;;;;;;;5075790;28;20025;-63
2021/03/03 11:52:15;;;;;;;33.25;20.48;;;;;;;;;;5075702;28;20024;-63
2021/03/03 11:54:41;;;;;;;38.33;20.67;;;;;;;;;;5074742;28;20028;-62
2021/03/03 11:57:07;;;;;;;31.95;19.27;;;;;;;;;;5075950;28;20418;-62
2021/03/03 11:59:33;;;;;;;34.00;18.33;;;;;;;;;;5073280;28;20031;-64
2021/03/03 12:02:00;;;;;;;31.85;18.15;;;;;;;;;;5075012;28;20025;-63
2021/03/03 12:04:26;;;;;;;30.00;18.70;;;;;;;;;;5057822;28;20388;-63
2021/03/03 12:06:52;;;;;;;29.40;18.27;;;;;;;;;;5075078;28;20129;-63
2021/03/03 12:09:18;;;;;;;31.70;18.83;;;;;;;;;;5074180;28;20096;-64
2021/03/03 12:11:44;;;;;;;31.42;18.40;;;;;;;;;;5074323;28;20051;-64
2021/03/03 12:14:11;;;;;;;33.03;19.92;;;;;;;;;;5075208;28;20032;-63
2021/03/03 12:16:37;;;;;;;39.00;23.17;;;;;;;;;;5073270;28;20032;-63
2021/03/03 12:19:03;;;;;;;35.40;20.15;;;;;;;;;;5071893;28;20105;-62
2021/03/03 12:21:30;;;;;;;43.88;24.50;;;;;;;;;;5072712;28;20017;-63
2021/03/03 12:23:59;;;;;;;41.85;22.52;;;;;;;;;;5073578;28;20025;-66
2021/03/03 12:26:25;;;;;;;34.33;19.88;;;;;;;;;;5073691;28;20539;-64
2021/03/03 12:28:51;;;;;;;37.53;20.02;;;;;;;;;;5074292;28;20480;-63
2021/03/03 12:31:17;;;;;;;43.72;23.30;;;;;;;;;;5072694;28;20046;-64
2021/03/03 12:33:43;;;;;;;39.03;20.63;;;;;;;;;;5071052;28;20474;-63
2021/03/03 12:36:09;;;;;;;33.08;18.00;;;;;;;;;;5072361;28;20037;-61
2021/03/03 12:38:36;;;;;;;47.10;26.67;;;;;;;;;;5071535;28;20025;-63
2021/03/03 12:41:02;;;;;;;34.47;18.30;;;;;;;;;;5074480;28;20089;-65
2021/03/03 12:43:30;;;;;;;31.60;17.88;;;;;;;;;;5069609;28;20427;-65
2021/03/03 12:45:56;;;;;;;33.03;19.00;;;;;;;;;;5070632;28;20035;-64
2021/03/03 12:48:22;;;;;;;34.40;17.88;;;;;;;;;;5073086;28;20032;-62
2021/03/03 12:50:48;;;;;;;35.50;18.85;;;;;;;;;;5070974;28;20024;-65
2021/03/03 12:53:14;;;;;;;34.67;18.90;;;;;;;;;;5073161;28;20028;-64
2021/03/03 12:55:40;;;;;;;33.25;18.70;;;;;;;;;;5072613;28;20525;-65
2021/03/03 12:58:06;;;;;;;33.72;18.58;;;;;;;;;;5072445;28;20048;-64
2021/03/03 13:00:33;;;;;;;36.13;18.88;;;;;;;;;;5073259;28;20364;-65
2021/03/03 13:02:59;;;;;;;35.38;19.33;;;;;;;;;;5074242;28;20021;-65
2021/03/03 13:05:25;;;;;;;36.72;19.13;;;;;;;;;;5073940;28;20132;-65
2021/03/03 13:07:51;;;;;;;35.47;19.20;;;;;;;;;;5074499;28;20044;-64
2021/03/03 13:10:17;;;;;;;32.88;17.63;;;;;;;;;;5074351;28;20105;-63
2021/03/03 13:12:43;;;;;;;32.42;18.30;;;;;;;;;;5072721;28;20033;-64
2021/03/03 13:15:09;;;;;;;35.90;17.95;;;;;;;;;;5074084;28;20386;-65
2021/03/03 13:17:36;;;;;;;33.55;18.67;;;;;;;;;;5074232;28;20353;-63
2021/03/03 13:20:04;;;;;;;33.97;18.65;;;;;;;;;;5072505;28;20505;-63
2021/03/03 13:22:30;;;;;;;34.15;18.25;;;;;;;;;;5073136;28;20066;-63
2021/03/03 13:24:56;;;;;;;32.72;17.98;;;;;;;;;;5074048;28;20036;-63
2021/03/03 13:27:22;;;;;;;34.42;18.27;;;;;;;;;;5073448;28;20098;-62
2021/03/03 13:29:49;;;;;;;32.42;18.88;;;;;;;;;;5073181;28;20039;-63
2021/03/03 13:32:15;;;;;;;33.83;18.92;;;;;;;;;;5072853;28;20028;-65
2021/03/03 13:34:42;;;;;;;33.25;18.58;;;;;;;;;;5073776;28;20552;-65
2021/03/03 13:37:08;;;;;;;34.05;18.60;;;;;;;;;;5074140;28;20104;-66
2021/03/03 13:39:35;;;;;;;31.25;18.20;;;;;;;;;;5073466;28;20032;-64
2021/03/03 13:42:01;;;;;;;33.30;18.48;;;;;;;;;;5074272;28;20024;-63
2021/03/03 13:44:27;;;;;;;32.40;18.73;;;;;;;;;;5074062;28;20025;-64
2021/03/03 13:46:54;;;;;;;30.85;18.05;;;;;;;;;;5073807;28;20056;-65
2021/03/03 13:49:20;;;;;;;31.10;18.23;;;;;;;;;;5073814;28;20032;-65
2021/03/03 13:51:46;;;;;;;31.90;18.65;;;;;;;;;;5074563;28;20028;-64
2021/03/03 13:54:12;;;;;;;30.90;18.00;;;;;;;;;;5073099;28;20028;-69
2021/03/03 13:56:38;;;;;;;31.63;18.15;;;;;;;;;;5073842;28;20021;-65
2021/03/03 13:59:04;;;;;;;34.15;18.80;;;;;;;;;;5073790;28;20020;-63
2021/03/03 14:01:30;;;;;;;34.80;19.05;;;;;;;;;;5073597;28;20099;-64
2021/03/03 14:03:56;;;;;;;33.63;18.63;;;;;;;;;;5072560;28;20110;-63
2021/03/03 14:06:22;;;;;;;33.25;18.55;;;;;;;;;;5072476;28;20506;-65
2021/03/03 14:08:48;;;;;;;30.23;17.73;;;;;;;;;;5072976;28;20032;-63
2021/03/03 14:11:16;;;;;;;32.15;18.10;;;;;;;;;;5073572;28;20028;-65
2021/03/03 14:13:43;;;;;;;28.75;17.65;;;;;;;;;;5070848;28;20017;-63
2021/03/03 14:16:09;;;;;;;28.48;17.48;;;;;;;;;;5071607;28;20071;-64
2021/03/03 14:18:35;;;;;;;41.00;22.30;;;;;;;;;;5070631;28;20035;-63
2021/03/03 14:21:01;;;;;;;34.90;18.20;;;;;;;;;;5071994;28;20099;-63
2021/03/03 14:23:27;;;;;;;32.88;16.73;;;;;;;;;;5072927;28;20013;-63
2021/03/03 14:25:53;;;;;;;29.90;16.92;;;;;;;;;;5073281;28;20029;-64
2021/03/03 14:28:20;;;;;;;31.95;17.30;;;;;;;;;;5072547;28;20020;-65
2021/03/03 14:30:46;;;;;;;30.95;16.67;;;;;;;;;;5073050;28;20472;-63
2021/03/03 14:33:12;;;;;;;30.40;16.73;;;;;;;;;;5073217;28;20067;-64
2021/03/03 14:35:38;;;;;;;32.28;17.52;;;;;;;;;;5073025;28;20024;-63
2021/03/03 14:38:04;;;;;;;29.80;16.45;;;;;;;;;;5073343;28;20024;-64
2021/03/03 14:40:30;;;;;;;29.90;16.42;;;;;;;;;;5072842;28;20020;-64
2021/03/03 14:42:56;;;;;;;29.33;16.08;;;;;;;;;;5073214;28;20024;-63
2021/03/03 14:45:23;;;;;;;29.05;16.67;;;;;;;;;;5072862;28;20103;-65
2021/03/03 14:47:49;;;;;;;30.73;16.73;;;;;;;;;;5070442;28;20028;-64
2021/03/03 14:50:15;;;;;;;31.88;16.00;;;;;;;;;;5072759;28;20021;-64
2021/03/03 14:52:41;;;;;;;24.48;14.02;;;;;;;;;;5073153;28;20079;-63
2021/03/03 14:55:08;;;;;;;27.25;14.68;;;;;;;;;;5072824;28;20021;-64
2021/03/03 14:57:34;;;;;;;29.45;15.38;;;;;;;;;;5072819;28;20020;-63
2021/03/03 15:00:00;;;;;;;29.25;15.95;;;;;;;;;;5071280;28;20053;-63
2021/03/03 15:02:26;;;;;;;30.45;16.77;;;;;;;;;;5072268;28;20021;-65
2021/03/03 15:04:53;;;;;;;28.35;15.73;;;;;;;;;;5072218;28;20079;-64
2021/03/03 15:07:19;;;;;;;35.17;17.92;;;;;;;;;;5074988;28;20044;-65
2021/03/03 15:09:45;;;;;;;44.13;21.60;;;;;;;;;;5072595;28;20020;-65
2021/03/03 15:12:11;;;;;;;29.63;15.63;;;;;;;;;;5076359;28;20630;-65
2021/03/03 15:14:38;;;;;;;30.40;16.58;;;;;;;;;;5076738;28;20020;-64
2021/03/03 15:17:04;;;;;;;34.20;18.55;;;;;;;;;;5076714;28;20017;-65
2021/03/03 15:19:30;;;;;;;44.45;22.65;;;;;;;;;;5076452;28;20025;-64
2021/03/03 15:21:56;;;;;;;34.78;17.83;;;;;;;;;;5076539;28;20055;-66
2021/03/03 15:24:23;;;;;;;26.30;14.77;;;;;;;;;;5075083;28;20051;-65
2021/03/03 15:26:49;;;;;;;30.63;15.95;;;;;;;;;;5076502;28;20039;-65
2021/03/03 15:29:15;;;;;;;31.63;16.83;;;;;;;;;;5076558;28;20020;-63
2021/03/03 15:31:41;;;;;;;45.88;25.30;;;;;;;;;;5075909;28;20028;-65
2021/03/03 15:34:07;;;;;;;38.35;18.77;;;;;;;;;;5076406;28;20016;-65
2021/03/03 15:36:33;;;;;;;34.75;18.42;;;;;;;;;;5076402;28;20017;-65
2021/03/03 15:38:59;;;;;;;37.78;17.42;;;;;;;;;;5075655;28;20021;-64
2021/03/03 15:41:25;;;;;;;36.20;18.52;;;;;;;;;;5072878;28;20025;-64
2021/03/03 15:43:51;;;;;;;41.38;18.33;;;;;;;;;;5075582;28;20031;-63
2021/03/03 15:46:17;;;;;;;44.13;24.20;;;;;;;;;;5075259;28;20402;-64
2021/03/03 15:48:43;;;;;;;31.30;17.75;;;;;;;;;;5076400;28;20100;-65
2021/03/03 15:51:09;;;;;;;39.90;20.60;;;;;;;;;;5075759;28;20082;-65
2021/03/03 15:53:35;;;;;;;45.75;22.65;;;;;;;;;;5075447;28;20091;-66
2021/03/03 15:56:02;;;;;;;38.05;18.27;;;;;;;;;;5075889;28;20036;-64
2021/03/03 15:58:28;;;;;;;30.02;17.33;;;;;;;;;;5075616;28;20490;-66
2021/03/03 16:00:54;;;;;;;29.83;16.77;;;;;;;;;;5075553;28;20051;-64
2021/03/03 16:03:20;;;;;;;32.83;17.00;;;;;;;;;;5073858;28;20410;-64
2021/03/03 16:05:46;;;;;;;32.08;18.23;;;;;;;;;;5074698;28;20032;-63
2021/03/03 16:08:12;;;;;;;31.85;18.80;;;;;;;;;;5075787;28;20132;-65
2021/03/03 16:10:38;;;;;;;34.80;19.40;;;;;;;;;;5074830;28;20070;-62
2021/03/03 16:13:04;;;;;;;35.42;18.92;;;;;;;;;;5075187;28;20025;-64
2021/03/03 16:15:30;;;;;;;36.42;19.55;;;;;;;;;;5075785;28;20074;-64
2021/03/03 16:17:56;;;;;;;37.72;19.85;;;;;;;;;;5073971;28;20031;-64
2021/03/03 16:20:23;;;;;;;53.70;26.15;;;;;;;;;;5074979;28;20468;-66
2021/03/03 16:22:49;;;;;;;51.50;26.08;;;;;;;;;;5066852;28;20406;-65
2021/03/03 16:25:15;;;;;;;43.33;22.52;;;;;;;;;;5073747;28;20120;-65
2021/03/03 16:27:41;;;;;;;49.72;24.98;;;;;;;;;;5074775;28;20087;-65
2021/03/03 16:30:09;;;;;;;55.80;24.80;;;;;;;;;;5075191;28;20032;-65
2021/03/03 16:32:35;;;;;;;46.67;25.58;;;;;;;;;;5074475;28;20104;-64
2021/03/03 16:35:02;;;;;;;56.38;25.55;;;;;;;;;;5074569;28;20028;-67
2021/03/03 16:37:29;;;;;;;54.50;26.35;;;;;;;;;;5075609;28;20400;-67
2021/03/03 16:39:56;;;;;;;57.08;28.10;;;;;;;;;;5075664;28;20027;-69
2021/03/03 16:42:22;;;;;;;66.03;27.75;;;;;;;;;;5075477;28;20029;-65
2021/03/03 16:44:48;;;;;;;61.83;29.67;;;;;;;;;;5075229;28;20028;-65
2021/03/03 16:47:14;;;;;;;72.13;33.00;;;;;;;;;;5075454;28;20024;-65
2021/03/03 16:49:40;;;;;;;92.47;38.92;;;;;;;;;;5074996;28;20017;-65
2021/03/03 16:52:07;;;;;;;97.60;41.13;;;;;;;;;;5075379;28;20116;-66
2021/03/03 16:54:43;;;;;;;95.63;45.25;;;;;;;;;;5074500;28;20100;-65
2021/03/03 16:57:24;;;;;;;;;;;;;;;;;;;;;
2021/03/03 16:59:57;;;;;;;127.40;62.15;;;;;;;;;;5074303;28;20035;-65
2021/03/03 17:02:30;;;;;;;140.77;65.18;;;;;;;;;;5073467;28;20561;-62
2021/03/03 17:05:05;;;;;;;;;;;;;;;;;;5075379;28;20037;-65
2021/03/03 17:07:31;;;;;;;109.28;56.63;;;;;;;;;;5074513;28;20321;-66
2021/03/03 17:09:57;;;;;;;114.10;58.28;;;;;;;;;;5074450;28;20020;-66
2021/03/03 17:12:24;;;;;;;112.93;58.88;;;;;;;;;;5074352;28;20019;-65
2021/03/03 17:14:53;;;;;;;116.65;60.50;;;;;;;;;;5074215;28;20025;-67
2021/03/03 17:17:19;;;;;;;116.78;59.70;;;;;;;;;;5074198;28;20414;-67
2021/03/03 17:19:45;;;;;;;124.97;60.95;;;;;;;;;;5074691;28;20020;-64
2021/03/03 17:22:12;;;;;;;122.50;61.03;;;;;;;;;;5074193;28;20021;-64
2021/03/03 17:24:38;;;;;;;128.82;64.50;;;;;;;;;;5074273;28;20028;-66
2021/03/03 17:27:05;;;;;;;140.15;70.30;;;;;;;;;;5074447;28;20031;-65
2021/03/03 17:29:31;;;;;;;166.68;79.65;;;;;;;;;;5073630;28;20020;-67
2021/03/03 17:31:57;;;;;;;170.48;82.22;;;;;;;;;;5074170;28;20020;-66
2021/03/03 17:34:23;;;;;;;176.07;83.13;;;;;;;;;;5074052;28;20418;-66
2021/03/03 17:36:49;;;;;;;178.95;82.80;;;;;;;;;;5073504;28;20016;-64
2021/03/03 17:39:16;;;;;;;181.35;84.00;;;;;;;;;;5073782;28;20067;-66
2021/03/03 17:41:42;;;;;;;167.57;81.60;;;;;;;;;;5074045;28;20099;-66
2021/03/03 17:44:08;;;;;;;149.88;72.75;;;;;;;;;;5073663;28;20498;-66
2021/03/03 17:46:34;;;;;;;144.38;69.40;;;;;;;;;;5072192;28;20475;-67
2021/03/03 17:49:00;;;;;;;137.40;67.40;;;;;;;;;;5073728;28;20078;-66
2021/03/03 17:51:26;;;;;;;137.05;66.40;;;;;;;;;;5055621;28;20024;-66
2021/03/03 17:53:52;;;;;;;123.10;59.47;;;;;;;;;;5072884;28;20028;-63
2021/03/03 17:56:19;;;;;;;122.18;58.60;;;;;;;;;;5073701;28;20023;-65
2021/03/03 17:58:45;;;;;;;112.72;54.03;;;;;;;;;;5072996;28;20464;-65
2021/03/03 18:01:11;;;;;;;101.10;48.72;;;;;;;;;;5074046;28;20056;-66
2021/03/03 18:03:37;;;;;;;100.90;50.95;;;;;;;;;;5073586;28;20076;-64
2021/03/03 18:06:03;;;;;;;106.82;49.55;;;;;;;;;;5073412;28;20112;-66
2021/03/03 18:08:29;;;;;;;94.05;46.63;;;;;;;;;;5072990;28;20124;-65
2021/03/03 18:10:55;;;;;;;105.28;49.60;;;;;;;;;;5073361;28;20027;-65
2021/03/03 18:13:22;;;;;;;106.68;50.88;;;;;;;;;;5071909;28;20059;-64
2021/03/03 18:15:48;;;;;;;112.50;52.63;;;;;;;;;;5072874;28;20029;-65
2021/03/03 18:18:14;;;;;;;107.47;53.00;;;;;;;;;;5073602;28;20113;-64
2021/03/03 18:20:40;;;;;;;105.55;52.80;;;;;;;;;;5072684;28;20059;-65
2021/03/03 18:23:07;;;;;;;104.78;51.08;;;;;;;;;;5072383;28;20032;-64
2021/03/03 18:25:33;;;;;;;119.38;58.88;;;;;;;;;;5070063;28;20036;-63
2021/03/03 18:27:59;;;;;;;111.70;56.38;;;;;;;;;;5070427;28;20031;-63
2021/03/03 18:30:25;;;;;;;115.00;56.33;;;;;;;;;;5071072;28;20052;-66
2021/03/03 18:32:51;;;;;;;114.93;57.33;;;;;;;;;;5070103;28;20465;-64
2021/03/03 18:35:18;;;;;;;121.53;57.85;;;;;;;;;;5069654;28;20415;-64
2021/03/03 18:37:45;;;;;;;108.50;52.10;;;;;;;;;;5071707;28;20024;-66
2021/03/03 18:40:11;;;;;;;102.40;51.67;;;;;;;;;;5063384;28;20021;-67
2021/03/03 18:42:45;;;;;;;96.70;47.13;;;;;;;;;;5071651;28;20476;-64
2021/03/03 18:45:12;;;;;;;86.63;43.65;;;;;;;;;;5067857;28;20082;-68
2021/03/03 18:47:42;;;;;;;85.68;41.30;;;;;;;;;;5072181;28;20017;-63
2021/03/03 18:50:09;;;;;;;84.85;44.13;;;;;;;;;;5071029;28;20021;-63
2021/03/03 18:52:35;;;;;;;136.77;68.25;;;;;;;;;;5071786;28;20056;-63
2021/03/03 18:55:01;;;;;;;217.77;104.10;;;;;;;;;;5071931;28;20078;-65
2021/03/03 18:57:27;;;;;;;248.05;119.32;;;;;;;;;;5072585;28;20399;-65
2021/03/03 18:59:55;;;;;;;250.98;120.25;;;;;;;;;;5073120;28;20518;-65
2021/03/03 19:02:22;;;;;;;232.68;109.28;;;;;;;;;;5072606;28;20020;-65
2021/03/03 19:04:48;;;;;;;223.32;106.35;;;;;;;;;;5073022;28;20025;-68
2021/03/03 19:07:14;;;;;;;194.55;95.97;;;;;;;;;;5072267;28;20048;-65
2021/03/03 19:09:40;;;;;;;207.63;99.97;;;;;;;;;;5071466;28;20380;-64
2021/03/03 19:12:10;;;;;;;190.82;87.38;;;;;;;;;;5072600;28;20031;-66
2021/03/03 19:14:36;;;;;;;145.90;70.22;;;;;;;;;;5072315;28;20021;-65
2021/03/03 19:17:03;;;;;;;111.88;52.35;;;;;;;;;;5072790;28;20024;-66
2021/03/03 19:19:29;;;;;;;109.47;49.80;;;;;;;;;;5073131;28;20028;-66
2021/03/03 19:21:55;;;;;;;81.40;40.15;;;;;;;;;;5072936;28;20028;-66
2021/03/03 19:24:22;;;;;;;76.15;36.92;;;;;;;;;;5072482;28;20588;-64
2021/03/03 19:26:48;;;;;;;58.75;29.92;;;;;;;;;;5072982;28;20108;-65
2021/03/03 19:29:15;;;;;;;59.63;29.17;;;;;;;;;;5072639;28;20020;-64
2021/03/03 19:31:41;;;;;;;59.80;29.77;;;;;;;;;;5071675;28;20100;-65
2021/03/03 19:34:07;;;;;;;63.72;32.85;;;;;;;;;;5072736;28;20021;-67
2021/03/03 19:36:33;;;;;;;68.28;34.30;;;;;;;;;;5071243;28;20087;-63
2021/03/03 19:38:59;;;;;;;66.68;33.88;;;;;;;;;;5072122;28;20025;-64
2021/03/03 19:41:25;;;;;;;58.80;31.35;;;;;;;;;;5072061;28;20025;-69
2021/03/03 19:43:53;;;;;;;57.42;28.85;;;;;;;;;;5072386;28;20029;-65
2021/03/03 19:46:19;;;;;;;55.42;28.33;;;;;;;;;;5072175;28;20081;-63
2021/03/03 19:48:45;;;;;;;56.75;29.25;;;;;;;;;;5072832;28;20025;-63
2021/03/03 19:51:11;;;;;;;64.63;32.17;;;;;;;;;;5072545;28;20021;-65
2021/03/03 19:53:37;;;;;;;61.33;31.13;;;;;;;;;;5075838;28;20483;-64
2021/03/03 19:56:04;;;;;;;103.00;51.25;;;;;;;;;;5074931;28;20031;-64
2021/03/03 19:58:30;;;;;;;140.25;71.07;;;;;;;;;;5074016;28;20020;-64
2021/03/03 20:00:56;;;;;;;154.75;77.75;;;;;;;;;;5074358;28;20032;-63
2021/03/03 20:03:22;;;;;;;133.05;62.65;;;;;;;;;;5074455;28;20033;-64
2021/03/03 20:05:48;;;;;;;127.43;60.55;;;;;;;;;;5071074;28;20441;-64
2021/03/03 20:08:15;;;;;;;128.48;63.72;;;;;;;;;;5075474;28;20044;-65
2021/03/03 20:10:41;;;;;;;135.80;65.78;;;;;;;;;;5075434;28;20020;-65
2021/03/03 20:13:07;;;;;;;136.55;69.10;;;;;;;;;;5075308;28;20051;-64
2021/03/03 20:15:33;;;;;;;143.80;71.43;;;;;;;;;;5075482;28;20082;-64
2021/03/03 20:18:00;;;;;;;155.70;77.13;;;;;;;;;;5075214;28;20032;-64